sensor_id;sensor_type;location;lat;lon;timestamp;pressure;altitude;pressure_sealevel;temperature
22269;BMP280;11303;50.772;19.670;2022-10-26T00:00:36;99342.56;;;9.37
22269;BMP280;11303;50.772;19.670;2022-10-26T00:02:37;99342.91;;;9.32
22269;BMP280;11303;50.772;19.670;2022-10-26T00:04:39;99337.22;;;9.26
22269;BMP280;11303;50.772;19.670;2022-10-26T00:06:41;99342.88;;;9.25
22269;BMP280;11303;50.772;19.670;2022-10-26T00:08:43;99348.50;;;9.16
22269;BMP280;11303;50.772;19.670;2022-10-26T00:10:45;99340.13;;;9.07
22269;BMP280;11303;50.772;19.670;2022-10-26T00:12:49;99340.09;;;9.04
22269;BMP280;11303;50.772;19.670;2022-10-26T00:14:51;99338.19;;;8.97
22269;BMP280;11303;50.772;19.670;2022-10-26T00:16:53;99352.88;;;8.91
22269;BMP280;11303;50.772;19.670;2022-10-26T00:18:55;99357.38;;;8.87
22269;BMP280;11303;50.772;19.670;2022-10-26T00:21:02;99363.34;;;8.77
22269;BMP280;11303;50.772;19.670;2022-10-26T00:23:04;99357.25;;;8.70
22269;BMP280;11303;50.772;19.670;2022-10-26T00:25:06;99356.03;;;8.60
22269;BMP280;11303;50.772;19.670;2022-10-26T00:27:07;99349.53;;;8.54
22269;BMP280;11303;50.772;19.670;2022-10-26T00:29:11;99360.41;;;8.46
22269;BMP280;11303;50.772;19.670;2022-10-26T00:31:14;99357.66;;;8.35
22269;BMP280;11303;50.772;19.670;2022-10-26T00:33:16;99351.53;;;8.24
22269;BMP280;11303;50.772;19.670;2022-10-26T00:35:17;99361.97;;;8.14
22269;BMP280;11303;50.772;19.670;2022-10-26T00:37:29;99361.53;;;8.08
22269;BMP280;11303;50.772;19.670;2022-10-26T00:39:30;99355.03;;;8.02
22269;BMP280;11303;50.772;19.670;2022-10-26T00:41:33;99351.22;;;7.96
22269;BMP280;11303;50.772;19.670;2022-10-26T00:43:37;99356.44;;;7.89
22269;BMP280;11303;50.772;19.670;2022-10-26T00:45:39;99352.16;;;7.81
22269;BMP280;11303;50.772;19.670;2022-10-26T00:48:14;99351.66;;;7.72
22269;BMP280;11303;50.772;19.670;2022-10-26T00:50:34;99347.88;;;7.66
22269;BMP280;11303;50.772;19.670;2022-10-26T00:52:37;99360.56;;;7.61
22269;BMP280;11303;50.772;19.670;2022-10-26T00:54:39;99354.91;;;7.59
22269;BMP280;11303;50.772;19.670;2022-10-26T00:56:41;99365.13;;;7.60
22269;BMP280;11303;50.772;19.670;2022-10-26T00:58:43;99357.91;;;7.57
22269;BMP280;11303;50.772;19.670;2022-10-26T01:00:45;99359.03;;;7.56
22269;BMP280;11303;50.772;19.670;2022-10-26T01:02:50;99366.56;;;7.54
22269;BMP280;11303;50.772;19.670;2022-10-26T01:04:53;99359.34;;;7.51
22269;BMP280;11303;50.772;19.670;2022-10-26T01:06:55;99358.63;;;7.54
22269;BMP280;11303;50.772;19.670;2022-10-26T01:08:56;99353.66;;;7.49
22269;BMP280;11303;50.772;19.670;2022-10-26T01:10:59;99361.13;;;7.44
22269;BMP280;11303;50.772;19.670;2022-10-26T01:13:01;99359.13;;;7.37
22269;BMP280;11303;50.772;19.670;2022-10-26T01:15:03;99362.88;;;7.36
22269;BMP280;11303;50.772;19.670;2022-10-26T01:20:05;99366.97;;;7.30
22269;BMP280;11303;50.772;19.670;2022-10-26T01:22:18;99363.47;;;7.26
22269;BMP280;11303;50.772;19.670;2022-10-26T01:31:10;99348.97;;;7.13
22269;BMP280;11303;50.772;19.670;2022-10-26T01:33:30;99344.06;;;7.12
22269;BMP280;11303;50.772;19.670;2022-10-26T01:35:41;99347.06;;;7.10
22269;BMP280;11303;50.772;19.670;2022-10-26T01:38:08;99354.56;;;7.08
22269;BMP280;11303;50.772;19.670;2022-10-26T01:40:22;99350.28;;;7.00
22269;BMP280;11303;50.772;19.670;2022-10-26T01:42:26;99355.97;;;7.02
22269;BMP280;11303;50.772;19.670;2022-10-26T01:44:35;99357.50;;;7.03
22269;BMP280;11303;50.772;19.670;2022-10-26T01:46:44;99352.94;;;7.00
22269;BMP280;11303;50.772;19.670;2022-10-26T01:48:48;99360.41;;;6.95
22269;BMP280;11303;50.772;19.670;2022-10-26T01:50:52;99358.47;;;6.92
22269;BMP280;11303;50.772;19.670;2022-10-26T01:52:54;99352.34;;;6.88
22269;BMP280;11303;50.772;19.670;2022-10-26T01:55:31;99367.81;;;6.89
22269;BMP280;11303;50.772;19.670;2022-10-26T01:57:31;99353.94;;;6.92
22269;BMP280;11303;50.772;19.670;2022-10-26T02:03:57;99347.06;;;6.88
22269;BMP280;11303;50.772;19.670;2022-10-26T02:06:26;99349.69;;;6.84
22269;BMP280;11303;50.772;19.670;2022-10-26T02:11:22;99348.03;;;6.76
22269;BMP280;11303;50.772;19.670;2022-10-26T02:15:37;99355.94;;;6.76
22269;BMP280;11303;50.772;19.670;2022-10-26T02:17:50;99357.03;;;6.75
22269;BMP280;11303;50.772;19.670;2022-10-26T02:19:57;99359.63;;;6.72
22269;BMP280;11303;50.772;19.670;2022-10-26T02:24:21;99361.16;;;6.73
22269;BMP280;11303;50.772;19.670;2022-10-26T02:26:27;99366.72;;;6.68
22269;BMP280;11303;50.772;19.670;2022-10-26T02:28:34;99370.06;;;6.65
22269;BMP280;11303;50.772;19.670;2022-10-26T02:30:37;99372.34;;;6.66
22269;BMP280;11303;50.772;19.670;2022-10-26T02:32:44;99377.19;;;6.64
22269;BMP280;11303;50.772;19.670;2022-10-26T02:34:48;99375.28;;;6.61
22269;BMP280;11303;50.772;19.670;2022-10-26T02:36:54;99378.25;;;6.60
22269;BMP280;11303;50.772;19.670;2022-10-26T02:38:58;99386.16;;;6.60
22269;BMP280;11303;50.772;19.670;2022-10-26T02:41:01;99389.13;;;6.58
22269;BMP280;11303;50.772;19.670;2022-10-26T02:43:12;99385.69;;;6.54
22269;BMP280;11303;50.772;19.670;2022-10-26T02:45:20;99387.47;;;6.50
22269;BMP280;11303;50.772;19.670;2022-10-26T02:47:23;99396.78;;;6.44
22269;BMP280;11303;50.772;19.670;2022-10-26T02:49:26;99394.78;;;6.38
22269;BMP280;11303;50.772;19.670;2022-10-26T02:56:17;99394.31;;;6.32
22269;BMP280;11303;50.772;19.670;2022-10-26T02:58:27;99396.78;;;6.25
22269;BMP280;11303;50.772;19.670;2022-10-26T03:00:30;99399.38;;;6.22
22269;BMP280;11303;50.772;19.670;2022-10-26T03:02:32;99396.66;;;6.18
22269;BMP280;11303;50.772;19.670;2022-10-26T03:04:34;99397.25;;;6.12
22269;BMP280;11303;50.772;19.670;2022-10-26T03:06:35;99406.91;;;6.04
22269;BMP280;11303;50.772;19.670;2022-10-26T03:08:37;99400.38;;;5.98
22269;BMP280;11303;50.772;19.670;2022-10-26T03:10:43;99395.81;;;5.95
22269;BMP280;11303;50.772;19.670;2022-10-26T03:12:44;99408.22;;;5.95
22269;BMP280;11303;50.772;19.670;2022-10-26T03:14:46;99408.91;;;5.92
22269;BMP280;11303;50.772;19.670;2022-10-26T03:16:48;99408.81;;;5.88
22269;BMP280;11303;50.772;19.670;2022-10-26T03:18:54;99407.22;;;5.84
22269;BMP280;11303;50.772;19.670;2022-10-26T03:20:56;99412.81;;;5.82
22269;BMP280;11303;50.772;19.670;2022-10-26T03:22:57;99405.97;;;5.78
22269;BMP280;11303;50.772;19.670;2022-10-26T03:25:00;99407.44;;;5.75
22269;BMP280;11303;50.772;19.670;2022-10-26T03:27:02;99406.44;;;5.83
22269;BMP280;11303;50.772;19.670;2022-10-26T03:29:03;99403.22;;;5.90
22269;BMP280;11303;50.772;19.670;2022-10-26T03:31:05;99396.94;;;5.94
22269;BMP280;11303;50.772;19.670;2022-10-26T03:33:07;99397.69;;;5.95
22269;BMP280;11303;50.772;19.670;2022-10-26T03:35:09;99393.81;;;5.89
22269;BMP280;11303;50.772;19.670;2022-10-26T03:37:10;99397.03;;;5.82
22269;BMP280;11303;50.772;19.670;2022-10-26T03:39:12;99398.50;;;5.80
22269;BMP280;11303;50.772;19.670;2022-10-26T03:41:13;99405.63;;;5.79
22269;BMP280;11303;50.772;19.670;2022-10-26T03:43:15;99402.59;;;5.77
22269;BMP280;11303;50.772;19.670;2022-10-26T03:45:16;99401.72;;;5.73
22269;BMP280;11303;50.772;19.670;2022-10-26T03:47:18;99411.41;;;5.69
22269;BMP280;11303;50.772;19.670;2022-10-26T03:49:19;99408.34;;;5.67
22269;BMP280;11303;50.772;19.670;2022-10-26T03:51:21;99408.31;;;5.64
22269;BMP280;11303;50.772;19.670;2022-10-26T03:53:23;99409.72;;;5.61
22269;BMP280;11303;50.772;19.670;2022-10-26T03:55:24;99403.72;;;5.61
22269;BMP280;11303;50.772;19.670;2022-10-26T03:57:26;99402.97;;;5.60
22269;BMP280;11303;50.772;19.670;2022-10-26T03:59:27;99404.06;;;5.59
22269;BMP280;11303;50.772;19.670;2022-10-26T04:01:28;99401.69;;;5.54
22269;BMP280;11303;50.772;19.670;2022-10-26T04:03:30;99400.88;;;5.50
22269;BMP280;11303;50.772;19.670;2022-10-26T04:05:31;99404.16;;;5.47
22269;BMP280;11303;50.772;19.670;2022-10-26T04:07:33;99408.56;;;5.43
22269;BMP280;11303;50.772;19.670;2022-10-26T04:09:34;99409.91;;;5.37
22269;BMP280;11303;50.772;19.670;2022-10-26T04:11:36;99410.22;;;5.32
22269;BMP280;11303;50.772;19.670;2022-10-26T04:13:37;99412.22;;;5.23
22269;BMP280;11303;50.772;19.670;2022-10-26T04:15:39;99410.97;;;5.17
22269;BMP280;11303;50.772;19.670;2022-10-26T04:17:40;99403.13;;;5.20
22269;BMP280;11303;50.772;19.670;2022-10-26T04:19:42;99407.22;;;5.18
22269;BMP280;11303;50.772;19.670;2022-10-26T04:21:43;99411.66;;;5.14
22269;BMP280;11303;50.772;19.670;2022-10-26T04:23:45;99415.28;;;5.09
22269;BMP280;11303;50.772;19.670;2022-10-26T04:25:46;99410.69;;;5.06
22269;BMP280;11303;50.772;19.670;2022-10-26T04:27:48;99418.91;;;5.05
22269;BMP280;11303;50.772;19.670;2022-10-26T04:29:50;99426.81;;;5.05
22269;BMP280;11303;50.772;19.670;2022-10-26T04:31:51;99417.41;;;5.04
22269;BMP280;11303;50.772;19.670;2022-10-26T04:33:53;99412.13;;;5.04
22269;BMP280;11303;50.772;19.670;2022-10-26T04:35:58;99400.94;;;5.07
22269;BMP280;11303;50.772;19.670;2022-10-26T04:38:03;99407.41;;;5.09
22269;BMP280;11303;50.772;19.670;2022-10-26T04:40:05;99406.63;;;5.09
22269;BMP280;11303;50.772;19.670;2022-10-26T04:42:12;99412.22;;;5.07
22269;BMP280;11303;50.772;19.670;2022-10-26T04:44:13;99419.63;;;5.02
22269;BMP280;11303;50.772;19.670;2022-10-26T04:46:14;99419.50;;;4.98
22269;BMP280;11303;50.772;19.670;2022-10-26T04:48:17;99411.22;;;4.96
22269;BMP280;11303;50.772;19.670;2022-10-26T04:50:18;99422.47;;;4.97
22269;BMP280;11303;50.772;19.670;2022-10-26T04:52:23;99423.72;;;5.03
22269;BMP280;11303;50.772;19.670;2022-10-26T04:54:25;99414.50;;;5.09
22269;BMP280;11303;50.772;19.670;2022-10-26T04:56:26;99412.31;;;5.11
22269;BMP280;11303;50.772;19.670;2022-10-26T04:58:28;99412.38;;;5.14
22269;BMP280;11303;50.772;19.670;2022-10-26T05:00:30;99418.56;;;5.22
22269;BMP280;11303;50.772;19.670;2022-10-26T05:02:33;99410.00;;;5.25
22269;BMP280;11303;50.772;19.670;2022-10-26T05:04:34;99420.88;;;5.23
22269;BMP280;11303;50.772;19.670;2022-10-26T05:06:36;99417.16;;;5.24
22269;BMP280;11303;50.772;19.670;2022-10-26T05:08:37;99418.09;;;5.32
22269;BMP280;11303;50.772;19.670;2022-10-26T05:10:41;99412.53;;;5.37
22269;BMP280;11303;50.772;19.670;2022-10-26T05:12:52;99413.66;;;5.36
22269;BMP280;11303;50.772;19.670;2022-10-26T05:14:53;99422.72;;;5.38
22269;BMP280;11303;50.772;19.670;2022-10-26T05:16:59;99423.94;;;5.41
22269;BMP280;11303;50.772;19.670;2022-10-26T05:19:00;99425.91;;;5.44
22269;BMP280;11303;50.772;19.670;2022-10-26T05:21:02;99413.66;;;5.52
22269;BMP280;11303;50.772;19.670;2022-10-26T05:23:06;99425.88;;;5.60
22269;BMP280;11303;50.772;19.670;2022-10-26T05:25:08;99430.03;;;5.61
22269;BMP280;11303;50.772;19.670;2022-10-26T05:27:09;99431.47;;;5.58
22269;BMP280;11303;50.772;19.670;2022-10-26T05:29:11;99431.47;;;5.58
22269;BMP280;11303;50.772;19.670;2022-10-26T05:31:12;99435.63;;;5.59
22269;BMP280;11303;50.772;19.670;2022-10-26T05:33:14;99439.88;;;5.64
22269;BMP280;11303;50.772;19.670;2022-10-26T05:35:15;99446.72;;;5.68
22269;BMP280;11303;50.772;19.670;2022-10-26T05:37:17;99447.16;;;5.70
22269;BMP280;11303;50.772;19.670;2022-10-26T05:39:19;99446.06;;;5.71
22269;BMP280;11303;50.772;19.670;2022-10-26T05:45:11;99447.97;;;5.90
22269;BMP280;11303;50.772;19.670;2022-10-26T05:47:13;99450.34;;;5.95
22269;BMP280;11303;50.772;19.670;2022-10-26T05:49:14;99452.34;;;6.01
22269;BMP280;11303;50.772;19.670;2022-10-26T05:51:16;99464.97;;;6.11
22269;BMP280;11303;50.772;19.670;2022-10-26T05:53:17;99460.31;;;6.20
22269;BMP280;11303;50.772;19.670;2022-10-26T05:55:19;99455.94;;;6.28
22269;BMP280;11303;50.772;19.670;2022-10-26T05:57:21;99461.81;;;6.40
22269;BMP280;11303;50.772;19.670;2022-10-26T05:59:23;99451.13;;;6.71
22269;BMP280;11303;50.772;19.670;2022-10-26T06:06:12;99463.47;;;7.57
22269;BMP280;11303;50.772;19.670;2022-10-26T06:08:13;99468.69;;;7.76
22269;BMP280;11303;50.772;19.670;2022-10-26T06:10:15;99470.84;;;7.97
22269;BMP280;11303;50.772;19.670;2022-10-26T06:12:17;99468.47;;;8.18
22269;BMP280;11303;50.772;19.670;2022-10-26T06:14:20;99461.16;;;8.37
22269;BMP280;11303;50.772;19.670;2022-10-26T06:16:31;99481.88;;;8.68
22269;BMP280;11303;50.772;19.670;2022-10-26T06:20:50;99477.94;;;9.35
22269;BMP280;11303;50.772;19.670;2022-10-26T06:25:23;99476.91;;;9.50
22269;BMP280;11303;50.772;19.670;2022-10-26T06:27:56;99483.56;;;9.84
22269;BMP280;11303;50.772;19.670;2022-10-26T06:30:05;99486.81;;;10.35
22269;BMP280;11303;50.772;19.670;2022-10-26T06:32:10;99487.22;;;10.58
22269;BMP280;11303;50.772;19.670;2022-10-26T06:34:19;99484.59;;;10.65
22269;BMP280;11303;50.772;19.670;2022-10-26T06:36:23;99485.38;;;11.18
22269;BMP280;11303;50.772;19.670;2022-10-26T06:38:26;99488.41;;;11.45
22269;BMP280;11303;50.772;19.670;2022-10-26T06:40:31;99492.13;;;11.75
22269;BMP280;11303;50.772;19.670;2022-10-26T06:42:33;99486.25;;;12.22
22269;BMP280;11303;50.772;19.670;2022-10-26T06:44:35;99486.69;;;12.14
22269;BMP280;11303;50.772;19.670;2022-10-26T06:46:56;99483.81;;;12.49
22269;BMP280;11303;50.772;19.670;2022-10-26T06:49:08;99491.44;;;13.01
22269;BMP280;11303;50.772;19.670;2022-10-26T06:51:14;99492.03;;;13.19
22269;BMP280;11303;50.772;19.670;2022-10-26T06:53:29;99485.22;;;13.11
22269;BMP280;11303;50.772;19.670;2022-10-26T06:55:38;99484.09;;;12.65
22269;BMP280;11303;50.772;19.670;2022-10-26T06:57:42;99490.47;;;12.81
22269;BMP280;11303;50.772;19.670;2022-10-26T06:59:52;99490.53;;;12.67
22269;BMP280;11303;50.772;19.670;2022-10-26T07:01:54;99492.44;;;12.70
22269;BMP280;11303;50.772;19.670;2022-10-26T07:03:56;99491.50;;;12.94
22269;BMP280;11303;50.772;19.670;2022-10-26T07:05:58;99493.44;;;12.87
22269;BMP280;11303;50.772;19.670;2022-10-26T07:08:00;99489.91;;;13.00
22269;BMP280;11303;50.772;19.670;2022-10-26T07:10:01;99491.91;;;13.33
22269;BMP280;11303;50.772;19.670;2022-10-26T07:12:03;99497.66;;;13.25
22269;BMP280;11303;50.772;19.670;2022-10-26T07:14:04;99494.94;;;12.84
22269;BMP280;11303;50.772;19.670;2022-10-26T07:16:06;99504.41;;;12.92
22269;BMP280;11303;50.772;19.670;2022-10-26T07:18:08;99502.09;;;13.75
22269;BMP280;11303;50.772;19.670;2022-10-26T07:20:11;99507.53;;;14.28
22269;BMP280;11303;50.772;19.670;2022-10-26T07:22:12;99518.63;;;14.53
22269;BMP280;11303;50.772;19.670;2022-10-26T07:24:14;99501.19;;;14.15
22269;BMP280;11303;50.772;19.670;2022-10-26T07:26:15;99494.25;;;14.21
22269;BMP280;11303;50.772;19.670;2022-10-26T07:28:17;99497.56;;;14.32
22269;BMP280;11303;50.772;19.670;2022-10-26T07:30:18;99503.25;;;14.61
22269;BMP280;11303;50.772;19.670;2022-10-26T07:32:20;99498.53;;;14.95
22269;BMP280;11303;50.772;19.670;2022-10-26T07:34:22;99503.28;;;14.84
22269;BMP280;11303;50.772;19.670;2022-10-26T07:36:23;99498.09;;;14.96
22269;BMP280;11303;50.772;19.670;2022-10-26T07:38:25;99498.63;;;15.11
22269;BMP280;11303;50.772;19.670;2022-10-26T07:40:26;99490.72;;;15.27
22269;BMP280;11303;50.772;19.670;2022-10-26T07:42:28;99492.13;;;15.70
22269;BMP280;11303;50.772;19.670;2022-10-26T07:44:30;99497.91;;;16.04
22269;BMP280;11303;50.772;19.670;2022-10-26T07:46:31;99496.75;;;16.05
22269;BMP280;11303;50.772;19.670;2022-10-26T07:48:32;99494.72;;;15.93
22269;BMP280;11303;50.772;19.670;2022-10-26T07:50:34;99494.97;;;16.50
22269;BMP280;11303;50.772;19.670;2022-10-26T07:52:36;99507.56;;;16.97
22269;BMP280;11303;50.772;19.670;2022-10-26T07:54:39;99498.63;;;17.45
22269;BMP280;11303;50.772;19.670;2022-10-26T07:56:40;99490.97;;;17.84
22269;BMP280;11303;50.772;19.670;2022-10-26T07:58:42;99494.75;;;17.99
22269;BMP280;11303;50.772;19.670;2022-10-26T08:00:43;99485.38;;;18.29
22269;BMP280;11303;50.772;19.670;2022-10-26T08:02:45;99502.69;;;18.74
22269;BMP280;11303;50.772;19.670;2022-10-26T08:04:46;99486.41;;;18.90
22269;BMP280;11303;50.772;19.670;2022-10-26T08:06:48;99494.50;;;19.12
22269;BMP280;11303;50.772;19.670;2022-10-26T08:08:50;99494.84;;;19.22
22269;BMP280;11303;50.772;19.670;2022-10-26T08:10:52;99503.25;;;19.76
22269;BMP280;11303;50.772;19.670;2022-10-26T08:12:53;99504.09;;;20.13
22269;BMP280;11303;50.772;19.670;2022-10-26T08:14:55;99495.63;;;20.32
22269;BMP280;11303;50.772;19.670;2022-10-26T08:16:56;99500.75;;;20.39
22269;BMP280;11303;50.772;19.670;2022-10-26T08:18:58;99514.25;;;20.48
22269;BMP280;11303;50.772;19.670;2022-10-26T08:21:01;99498.38;;;20.59
22269;BMP280;11303;50.772;19.670;2022-10-26T08:23:12;99492.41;;;20.64
22269;BMP280;11303;50.772;19.670;2022-10-26T08:25:13;99487.56;;;20.41
22269;BMP280;11303;50.772;19.670;2022-10-26T08:27:20;99487.69;;;20.29
22269;BMP280;11303;50.772;19.670;2022-10-26T08:29:22;99499.06;;;20.33
22269;BMP280;11303;50.772;19.670;2022-10-26T08:31:24;99502.38;;;20.37
22269;BMP280;11303;50.772;19.670;2022-10-26T08:33:25;99507.34;;;20.47
22269;BMP280;11303;50.772;19.670;2022-10-26T08:35:27;99501.63;;;20.36
22269;BMP280;11303;50.772;19.670;2022-10-26T08:37:29;99497.00;;;20.46
22269;BMP280;11303;50.772;19.670;2022-10-26T08:39:31;99491.16;;;20.65
22269;BMP280;11303;50.772;19.670;2022-10-26T08:41:40;99496.13;;;20.76
22269;BMP280;11303;50.772;19.670;2022-10-26T08:43:47;99496.56;;;20.83
22269;BMP280;11303;50.772;19.670;2022-10-26T08:46:40;99497.78;;;20.82
22269;BMP280;11303;50.772;19.670;2022-10-26T08:48:18;99497.91;;;20.70
22269;BMP280;11303;50.772;19.670;2022-10-26T08:50:31;99498.94;;;20.81
22269;BMP280;11303;50.772;19.670;2022-10-26T08:52:47;99501.38;;;20.70
22269;BMP280;11303;50.772;19.670;2022-10-26T08:54:51;99495.38;;;20.84
22269;BMP280;11303;50.772;19.670;2022-10-26T08:56:57;99490.88;;;20.99
22269;BMP280;11303;50.772;19.670;2022-10-26T08:59:06;99503.44;;;20.93
22269;BMP280;11303;50.772;19.670;2022-10-26T09:01:11;99498.94;;;20.90
22269;BMP280;11303;50.772;19.670;2022-10-26T09:03:14;99507.81;;;21.09
22269;BMP280;11303;50.772;19.670;2022-10-26T09:05:26;99503.63;;;20.90
22269;BMP280;11303;50.772;19.670;2022-10-26T09:08:02;99497.78;;;20.91
22269;BMP280;11303;50.772;19.670;2022-10-26T09:12:53;99500.03;;;20.93
22269;BMP280;11303;50.772;19.670;2022-10-26T09:17:21;99506.72;;;21.15
22269;BMP280;11303;50.772;19.670;2022-10-26T09:19:34;99500.59;;;21.24
22269;BMP280;11303;50.772;19.670;2022-10-26T09:21:52;99504.56;;;21.46
22269;BMP280;11303;50.772;19.670;2022-10-26T09:24:18;99497.22;;;21.38
22269;BMP280;11303;50.772;19.670;2022-10-26T09:26:37;99499.31;;;21.42
22269;BMP280;11303;50.772;19.670;2022-10-26T09:28:43;99501.31;;;21.15
22269;BMP280;11303;50.772;19.670;2022-10-26T09:30:46;99501.81;;;20.96
22269;BMP280;11303;50.772;19.670;2022-10-26T09:32:56;99505.06;;;20.37
22269;BMP280;11303;50.772;19.670;2022-10-26T09:35:02;99509.34;;;20.16
22269;BMP280;11303;50.772;19.670;2022-10-26T09:39:27;99501.78;;;20.42
22269;BMP280;11303;50.772;19.670;2022-10-26T09:41:42;99501.06;;;21.04
22269;BMP280;11303;50.772;19.670;2022-10-26T09:46:04;99501.34;;;21.65
22269;BMP280;11303;50.772;19.670;2022-10-26T09:48:34;99495.69;;;20.68
22269;BMP280;11303;50.772;19.670;2022-10-26T09:50:39;99504.91;;;20.40
22269;BMP280;11303;50.772;19.670;2022-10-26T09:52:44;99500.41;;;20.28
22269;BMP280;11303;50.772;19.670;2022-10-26T09:54:46;99500.53;;;20.25
22269;BMP280;11303;50.772;19.670;2022-10-26T09:56:54;99506.59;;;20.38
22269;BMP280;11303;50.772;19.670;2022-10-26T09:59:00;99508.81;;;19.91
22269;BMP280;11303;50.772;19.670;2022-10-26T10:01:03;99508.00;;;19.42
22269;BMP280;11303;50.772;19.670;2022-10-26T10:03:29;99506.63;;;19.16
22269;BMP280;11303;50.772;19.670;2022-10-26T10:05:33;99509.59;;;19.18
22269;BMP280;11303;50.772;19.670;2022-10-26T10:08:25;99507.28;;;19.50
22269;BMP280;11303;50.772;19.670;2022-10-26T10:10:27;99499.53;;;19.92
22269;BMP280;11303;50.772;19.670;2022-10-26T10:12:29;99505.81;;;20.37
22269;BMP280;11303;50.772;19.670;2022-10-26T10:14:32;99508.84;;;20.84
22269;BMP280;11303;50.772;19.670;2022-10-26T10:16:47;99504.66;;;20.56
22269;BMP280;11303;50.772;19.670;2022-10-26T10:18:55;99504.91;;;19.83
22269;BMP280;11303;50.772;19.670;2022-10-26T10:20:58;99501.75;;;19.02
22269;BMP280;11303;50.772;19.670;2022-10-26T10:23:01;99512.44;;;18.81
22269;BMP280;11303;50.772;19.670;2022-10-26T10:25:22;99507.72;;;19.06
22269;BMP280;11303;50.772;19.670;2022-10-26T10:27:24;99509.75;;;19.36
22269;BMP280;11303;50.772;19.670;2022-10-26T10:29:31;99508.72;;;19.64
22269;BMP280;11303;50.772;19.670;2022-10-26T10:31:34;99512.56;;;19.93
22269;BMP280;11303;50.772;19.670;2022-10-26T10:33:39;99516.25;;;20.17
22269;BMP280;11303;50.772;19.670;2022-10-26T10:35:50;99509.34;;;20.16
22269;BMP280;11303;50.772;19.670;2022-10-26T10:37:52;99516.25;;;20.17
22269;BMP280;11303;50.772;19.670;2022-10-26T10:39:59;99503.06;;;19.71
22269;BMP280;11303;50.772;19.670;2022-10-26T10:42:16;99498.41;;;19.19
22269;BMP280;11303;50.772;19.670;2022-10-26T10:44:22;99508.41;;;18.98
22269;BMP280;11303;50.772;19.670;2022-10-26T10:46:26;99504.69;;;19.17
22269;BMP280;11303;50.772;19.670;2022-10-26T10:48:31;99508.03;;;19.72
22269;BMP280;11303;50.772;19.670;2022-10-26T10:50:49;99497.94;;;20.03
22269;BMP280;11303;50.772;19.670;2022-10-26T10:52:51;99496.22;;;20.18
22269;BMP280;11303;50.772;19.670;2022-10-26T10:55:03;99503.25;;;20.34
22269;BMP280;11303;50.772;19.670;2022-10-26T10:57:23;99501.00;;;20.32
22269;BMP280;11303;50.772;19.670;2022-10-26T10:59:43;99500.13;;;20.35
22269;BMP280;11303;50.772;19.670;2022-10-26T11:02:08;99499.28;;;20.92
22269;BMP280;11303;50.772;19.670;2022-10-26T11:06:55;99491.66;;;21.41
22269;BMP280;11303;50.772;19.670;2022-10-26T11:09:07;99492.25;;;21.45
22269;BMP280;11303;50.772;19.670;2022-10-26T11:11:15;99488.38;;;21.46
22269;BMP280;11303;50.772;19.670;2022-10-26T11:13:24;99486.84;;;21.54
22269;BMP280;11303;50.772;19.670;2022-10-26T11:15:30;99497.91;;;21.56
22269;BMP280;11303;50.772;19.670;2022-10-26T11:18:25;99498.34;;;21.13
22269;BMP280;11303;50.772;19.670;2022-10-26T11:20:04;99494.28;;;20.37
22269;BMP280;11303;50.772;19.670;2022-10-26T11:22:15;99493.75;;;20.60
22269;BMP280;11303;50.772;19.670;2022-10-26T11:24:29;99492.38;;;20.91
22269;BMP280;11303;50.772;19.670;2022-10-26T11:26:37;99492.38;;;20.55
22269;BMP280;11303;50.772;19.670;2022-10-26T11:30:59;99499.16;;;18.99
22269;BMP280;11303;50.772;19.670;2022-10-26T11:33:13;99499.34;;;18.70
22269;BMP280;11303;50.772;19.670;2022-10-26T11:35:29;99503.75;;;18.55
22269;BMP280;11303;50.772;19.670;2022-10-26T11:39:59;99501.91;;;17.77
22269;BMP280;11303;50.772;19.670;2022-10-26T11:46:41;99503.91;;;17.20
22269;BMP280;11303;50.772;19.670;2022-10-26T11:50:55;99498.53;;;16.91
22269;BMP280;11303;50.772;19.670;2022-10-26T11:53:11;99501.31;;;16.72
22269;BMP280;11303;50.772;19.670;2022-10-26T11:55:13;99499.38;;;16.56
22269;BMP280;11303;50.772;19.670;2022-10-26T11:57:15;99496.13;;;16.49
22269;BMP280;11303;50.772;19.670;2022-10-26T11:59:19;99497.91;;;16.39
22269;BMP280;11303;50.772;19.670;2022-10-26T12:01:21;99496.94;;;16.30
22269;BMP280;11303;50.772;19.670;2022-10-26T12:03:33;99507.34;;;16.28
22269;BMP280;11303;50.772;19.670;2022-10-26T12:07:52;99491.53;;;16.33
22269;BMP280;11303;50.772;19.670;2022-10-26T12:09:55;99498.66;;;16.24
22269;BMP280;11303;50.772;19.670;2022-10-26T12:12:05;99499.53;;;16.17
22269;BMP280;11303;50.772;19.670;2022-10-26T12:14:22;99493.69;;;16.22
22269;BMP280;11303;50.772;19.670;2022-10-26T12:16:53;99494.75;;;16.25
22269;BMP280;11303;50.772;19.670;2022-10-26T12:19:01;99495.66;;;16.38
22269;BMP280;11303;50.772;19.670;2022-10-26T12:21:07;99494.88;;;16.53
22269;BMP280;11303;50.772;19.670;2022-10-26T12:23:10;99489.94;;;16.68
22269;BMP280;11303;50.772;19.670;2022-10-26T12:25:28;99495.53;;;16.89
22269;BMP280;11303;50.772;19.670;2022-10-26T12:27:51;99496.25;;;17.06
22269;BMP280;11303;50.772;19.670;2022-10-26T12:38:58;99497.97;;;17.41
22269;BMP280;11303;50.772;19.670;2022-10-26T12:45:21;99495.41;;;17.50
22269;BMP280;11303;50.772;19.670;2022-10-26T12:52:18;99491.03;;;17.56
22269;BMP280;11303;50.772;19.670;2022-10-26T12:54:42;99481.47;;;17.55
22269;BMP280;11303;50.772;19.670;2022-10-26T12:56:50;99484.94;;;17.55
22269;BMP280;11303;50.772;19.670;2022-10-26T13:03:48;99486.34;;;17.60
22269;BMP280;11303;50.772;19.670;2022-10-26T13:08:18;99480.72;;;17.54
22269;BMP280;11303;50.772;19.670;2022-10-26T13:10:23;99488.03;;;17.54
22269;BMP280;11303;50.772;19.670;2022-10-26T13:12:28;99476.22;;;17.51
22269;BMP280;11303;50.772;19.670;2022-10-26T13:14:52;99476.75;;;17.46
22269;BMP280;11303;50.772;19.670;2022-10-26T13:16:56;99481.00;;;17.31
22269;BMP280;11303;50.772;19.670;2022-10-26T13:18:59;99484.81;;;17.18
22269;BMP280;11303;50.772;19.670;2022-10-26T13:21:09;99478.66;;;17.05
22269;BMP280;11303;50.772;19.670;2022-10-26T13:23:15;99475.69;;;16.87
22269;BMP280;11303;50.772;19.670;2022-10-26T13:25:25;99472.94;;;16.74
22269;BMP280;11303;50.772;19.670;2022-10-26T13:32:51;99485.84;;;16.31
22269;BMP280;11303;50.772;19.670;2022-10-26T13:34:55;99493.63;;;16.26